createdAt,value
2023-10-23T00:01:42.516Z,1.10
2023-10-23T00:04:10.976Z,1.05
2023-10-23T00:06:39.374Z,1.60
2023-10-23T00:09:07.559Z,1.13
2023-10-23T00:11:35.574Z,1.20
2023-10-23T00:14:05.084Z,1.42
2023-10-23T00:16:33.140Z,1.30
2023-10-23T00:19:01.144Z,1.10
2023-10-23T00:21:29.201Z,1.35
2023-10-23T00:23:57.187Z,1.55
2023-10-23T00:26:25.952Z,1.02
2023-10-23T00:28:54.101Z,0.90
2023-10-23T00:31:23.513Z,0.93
2023-10-23T00:33:51.692Z,1.20
2023-10-23T00:36:19.788Z,1.45
2023-10-23T00:38:47.794Z,1.40
2023-10-23T00:41:15.820Z,1.60
2023-10-23T00:43:43.791Z,1.70
2023-10-23T00:46:16.191Z,1.35
2023-10-23T00:48:47.909Z,2.13
2023-10-23T00:51:17.659Z,1.42
2023-10-23T00:53:46.395Z,1.35
2023-10-23T00:56:14.674Z,1.67
2023-10-23T00:58:44.205Z,1.83
2023-10-23T01:01:13.762Z,2.10
2023-10-23T01:03:42.129Z,1.27
2023-10-23T01:06:14.128Z,1.08
2023-10-23T01:08:42.972Z,1.02
2023-10-23T01:11:11.078Z,1.35
2023-10-23T01:13:40.009Z,1.58
2023-10-23T01:16:08.580Z,1.90
2023-10-23T01:18:36.641Z,1.50
2023-10-23T01:21:04.848Z,1.30
2023-10-23T01:23:37.040Z,1.50
2023-10-23T01:26:06.455Z,1.83
2023-10-23T01:28:35.192Z,2.00
2023-10-23T01:31:03.315Z,1.60
2023-10-23T01:33:31.695Z,1.50
2023-10-23T01:35:59.757Z,0.90
2023-10-23T01:38:27.850Z,1.75
2023-10-23T01:40:55.947Z,1.38
2023-10-23T01:43:25.537Z,1.40
2023-10-23T01:45:53.624Z,1.40
2023-10-23T01:48:23.321Z,1.30
2023-10-23T01:50:51.796Z,1.75
2023-10-23T01:53:19.804Z,1.27
2023-10-23T01:55:47.881Z,1.08
2023-10-23T01:58:15.928Z,1.20
2023-10-23T02:00:45.512Z,1.20
2023-10-23T02:03:13.617Z,1.05
2023-10-23T02:05:41.692Z,0.90
2023-10-23T02:08:10.159Z,1.10
2023-10-23T02:10:38.149Z,0.65
2023-10-23T02:13:06.602Z,1.20
2023-10-23T02:15:34.613Z,1.33
2023-10-23T02:18:04.455Z,1.05
2023-10-23T02:20:32.482Z,1.38
2023-10-23T02:23:00.463Z,1.02
2023-10-23T02:25:28.556Z,1.38
2023-10-23T02:27:56.727Z,1.02
2023-10-23T02:30:24.775Z,1.10
2023-10-23T02:32:52.876Z,1.20
2023-10-23T02:35:22.951Z,0.77
2023-10-23T02:37:51.037Z,1.35
2023-10-23T02:40:19.275Z,1.23
2023-10-23T02:42:47.295Z,1.08
2023-10-23T02:45:16.425Z,1.38
2023-10-23T02:47:44.399Z,1.30
2023-10-23T02:50:13.206Z,1.00
2023-10-23T02:52:42.629Z,0.88
2023-10-23T02:55:11.572Z,0.80
2023-10-23T02:57:40.960Z,0.80
2023-10-23T03:00:10.329Z,1.00
2023-10-23T03:02:38.402Z,0.85
2023-10-23T03:05:07.187Z,1.10
2023-10-23T03:07:35.189Z,0.90
2023-10-23T03:10:04.660Z,1.08
2023-10-23T03:12:32.764Z,0.90
2023-10-23T03:15:00.776Z,1.20
2023-10-23T03:17:28.758Z,1.17
2023-10-23T03:19:57.097Z,1.40
2023-10-23T03:22:25.024Z,1.50
2023-10-23T03:24:53.145Z,1.98
2023-10-23T03:27:22.628Z,1.50
2023-10-23T03:29:50.797Z,0.95
2023-10-23T03:32:18.731Z,1.00
2023-10-23T03:34:46.919Z,1.10
2023-10-23T03:37:15.561Z,1.30
2023-10-23T03:39:43.935Z,1.52
2023-10-23T03:42:12.258Z,1.23
2023-10-23T03:44:41.619Z,1.52
2023-10-23T03:47:09.564Z,1.05
2023-10-23T03:49:37.676Z,1.15
2023-10-23T03:52:05.905Z,1.50
2023-10-23T03:54:33.920Z,1.50
2023-10-23T03:57:02.056Z,1.65
2023-10-23T03:59:30.123Z,1.60
2023-10-23T04:01:59.547Z,1.58
2023-10-23T04:04:28.738Z,1.50
2023-10-23T04:06:58.260Z,1.55
2023-10-23T04:09:26.321Z,1.45
2023-10-23T04:11:56.119Z,1.65
2023-10-23T04:14:24.452Z,1.38
2023-10-23T04:16:52.557Z,1.42
2023-10-23T04:19:21.964Z,1.40
2023-10-23T04:21:50.010Z,1.48
2023-10-23T04:24:18.049Z,1.52
2023-10-23T04:26:46.119Z,1.52
2023-10-23T04:29:14.149Z,1.85
2023-10-23T04:31:42.153Z,1.60
2023-10-23T04:34:10.936Z,1.20
2023-10-23T04:36:40.321Z,1.30
2023-10-23T04:39:08.322Z,1.77
2023-10-23T04:41:36.565Z,1.80
2023-10-23T04:44:05.011Z,2.53
2023-10-23T04:46:33.010Z,2.08
2023-10-23T04:49:01.445Z,2.08
2023-10-23T04:51:30.466Z,1.73
2023-10-23T04:53:59.999Z,1.70
2023-10-23T04:56:28.003Z,2.05
2023-10-23T04:58:56.055Z,2.03
2023-10-23T05:01:25.679Z,1.75
2023-10-23T05:03:53.771Z,2.50
2023-10-23T05:06:26.947Z,2.28
2023-10-23T05:08:55.119Z,2.45
2023-10-23T05:11:24.523Z,2.50
2023-10-23T05:13:54.361Z,2.20
2023-10-23T05:16:22.482Z,2.30
2023-10-23T05:18:50.573Z,2.13
2023-10-23T05:21:18.924Z,1.70
2023-10-23T05:23:46.916Z,2.30
2023-10-23T05:26:16.179Z,1.77
2023-10-23T05:28:45.837Z,1.70
2023-10-23T05:31:13.931Z,1.70
2023-10-23T05:33:42.010Z,2.22
2023-10-23T05:36:11.277Z,1.95
2023-10-23T05:38:40.311Z,1.40
2023-10-23T05:41:09.314Z,1.88
2023-10-23T05:43:38.049Z,1.85
2023-10-23T05:46:07.810Z,1.80
2023-10-23T05:48:37.880Z,2.15
2023-10-23T05:51:07.368Z,2.28
2023-10-23T05:53:36.328Z,2.58
2023-10-23T05:56:05.297Z,1.80
2023-10-23T05:58:33.949Z,2.00
2023-10-23T06:01:08.770Z,4.18
2023-10-23T06:03:37.741Z,3.47
2023-10-23T06:06:06.439Z,2.78
2023-10-23T06:08:34.541Z,2.35
2023-10-23T06:11:03.127Z,2.60
2023-10-23T06:13:31.229Z,2.75
2023-10-23T06:16:05.928Z,2.63
2023-10-23T06:18:36.365Z,2.33
2023-10-23T06:21:05.881Z,2.28
2023-10-23T06:23:35.077Z,2.40
2023-10-23T06:26:03.332Z,2.25
2023-10-23T06:28:31.475Z,2.05
2023-10-23T06:31:06.426Z,2.85
2023-10-23T06:33:36.433Z,2.38
2023-10-23T06:36:06.115Z,2.60
2023-10-23T06:38:34.252Z,3.00
2023-10-23T06:41:06.140Z,3.40
2023-10-23T06:43:34.340Z,3.47
2023-10-23T06:46:03.494Z,3.97
2023-10-23T06:48:33.145Z,3.47
2023-10-23T06:51:02.770Z,3.72
2023-10-23T06:53:30.847Z,3.05
2023-10-23T06:55:58.875Z,3.10
2023-10-23T06:58:26.897Z,3.40
2023-10-23T07:00:54.942Z,2.65
2023-10-23T07:03:23.051Z,5.38
2023-10-23T07:05:51.181Z,2.38
2023-10-23T07:08:20.846Z,2.55
2023-10-23T07:10:49.169Z,3.80
2023-10-23T07:13:22.787Z,2.42
2023-10-23T07:15:52.054Z,2.83
2023-10-23T07:18:21.014Z,3.63
2023-10-23T07:20:58.589Z,3.42
2023-10-23T07:23:30.471Z,4.68
2023-10-23T07:26:08.934Z,2.92
2023-10-23T07:28:39.837Z,3.47
2023-10-23T07:31:08.675Z,2.38
2023-10-23T07:33:37.722Z,3.22
2023-10-23T07:36:08.269Z,4.07
2023-10-23T07:38:38.777Z,4.50
2023-10-23T07:41:06.971Z,4.18
2023-10-23T07:43:35.095Z,4.10
2023-10-23T07:46:15.829Z,10.57
2023-10-23T07:48:45.609Z,6.25
2023-10-23T07:51:14.171Z,4.60
2023-10-23T07:53:44.225Z,4.88
2023-10-23T07:56:14.391Z,6.65
2023-10-23T07:58:43.022Z,8.88
2023-10-23T08:01:13.154Z,6.45
2023-10-23T08:03:42.094Z,4.68
2023-10-23T08:06:12.297Z,9.13
2023-10-23T08:08:44.451Z,7.82
2023-10-23T08:11:14.534Z,5.05
2023-10-23T08:13:43.027Z,5.47
2023-10-23T08:16:11.487Z,6.05
2023-10-23T08:18:42.011Z,5.43
2023-10-23T08:21:12.824Z,6.10
2023-10-23T08:23:41.667Z,6.03
2023-10-23T08:26:11.664Z,5.22
2023-10-23T08:31:24.875Z,5.85
2023-10-23T08:33:59.344Z,5.53
2023-10-23T08:36:27.593Z,5.80
2023-10-23T08:38:55.664Z,7.47
2023-10-23T08:41:26.575Z,6.60
2023-10-23T08:43:56.424Z,6.65
2023-10-23T08:46:27.100Z,6.43
2023-10-23T08:48:55.736Z,5.75
2023-10-23T08:51:23.843Z,6.15
2023-10-23T08:54:09.313Z,6.38
2023-10-23T08:56:41.165Z,5.90
2023-10-23T08:59:11.522Z,5.97
2023-10-23T09:01:40.366Z,7.25
2023-10-23T09:04:11.930Z,6.50
2023-10-23T09:06:40.943Z,5.60
2023-10-23T09:09:10.228Z,5.03
2023-10-23T09:11:46.181Z,6.03
2023-10-23T09:14:25.791Z,6.40
2023-10-23T09:16:56.443Z,6.22
2023-10-23T09:19:29.249Z,5.82
2023-10-23T09:21:58.545Z,6.20
2023-10-23T09:24:26.847Z,6.97
2023-10-23T09:26:56.273Z,8.00
2023-10-23T09:29:25.255Z,8.38
2023-10-23T09:31:54.072Z,8.65
2023-10-23T09:34:22.905Z,6.35
2023-10-23T09:36:52.677Z,6.28
2023-10-23T09:39:23.745Z,6.75
2023-10-23T09:41:52.603Z,6.95
2023-10-23T09:44:22.183Z,6.97
2023-10-23T09:46:51.550Z,6.47
2023-10-23T09:49:22.030Z,6.65
2023-10-23T09:51:51.497Z,5.85
2023-10-23T09:54:22.170Z,7.80
2023-10-23T09:56:52.308Z,6.55
2023-10-23T09:59:28.001Z,6.53
2023-10-23T10:02:00.072Z,6.38
2023-10-23T10:04:31.847Z,7.80
2023-10-23T10:07:07.490Z,6.85
2023-10-23T10:09:36.653Z,8.27
2023-10-23T10:12:06.023Z,8.20
2023-10-23T10:14:35.935Z,7.15
2023-10-23T10:17:04.854Z,8.20
2023-10-23T10:19:34.107Z,6.90
2023-10-23T10:22:10.944Z,12.23
2023-10-23T10:24:40.554Z,7.95
2023-10-23T10:27:09.912Z,9.27
2023-10-23T10:29:41.265Z,7.90
2023-10-23T10:32:13.784Z,7.75
2023-10-23T10:34:56.735Z,8.48
2023-10-23T10:37:28.083Z,9.27
2023-10-23T10:40:13.615Z,7.97
2023-10-23T10:42:42.575Z,7.20
2023-10-23T10:45:56.331Z,7.28
2023-10-23T10:48:27.290Z,8.02
2023-10-23T10:50:56.382Z,6.80
2023-10-23T10:53:26.914Z,7.15
2023-10-23T10:55:54.959Z,7.53
2023-10-23T10:58:23.938Z,6.50
2023-10-23T11:00:53.733Z,8.13
2023-10-23T11:03:21.879Z,7.32
2023-10-23T11:05:49.970Z,7.70
2023-10-23T11:08:17.993Z,7.18
2023-10-23T11:10:46.159Z,8.23
2023-10-23T11:13:17.711Z,7.88
2023-10-23T11:15:47.076Z,7.68
2023-10-23T11:18:18.484Z,8.63
2023-10-23T11:20:46.537Z,8.30
2023-10-23T11:23:17.014Z,10.57
2023-10-23T11:25:45.044Z,11.45
2023-10-23T11:28:13.118Z,7.30
2023-10-23T11:30:47.521Z,22.08
2023-10-23T11:33:17.638Z,8.18
2023-10-23T11:35:45.759Z,8.75
2023-10-23T11:38:14.989Z,12.63
2023-10-23T11:40:44.168Z,8.85
2023-10-23T11:43:13.391Z,9.15
2023-10-23T11:45:42.182Z,8.35
2023-10-23T11:48:10.643Z,9.35
2023-10-23T11:50:42.106Z,8.15
2023-10-23T11:53:10.364Z,7.55
2023-10-23T11:55:39.918Z,11.40
2023-10-23T11:58:08.049Z,6.82
2023-10-23T12:00:38.864Z,8.00
2023-10-23T12:03:07.735Z,9.15
2023-10-23T12:05:36.010Z,7.15
2023-10-23T12:08:06.316Z,7.30
2023-10-23T12:10:34.848Z,8.00
2023-10-23T12:13:03.952Z,8.23
2023-10-23T12:15:31.979Z,8.05
2023-10-23T12:18:04.737Z,5.30
2023-10-23T12:20:33.298Z,4.93
2023-10-23T12:23:01.526Z,3.92
2023-10-23T12:25:31.093Z,5.32
2023-10-23T12:27:59.572Z,5.75
2023-10-23T12:30:29.316Z,4.68
2023-10-23T12:33:13.674Z,5.78
2023-10-23T12:35:45.938Z,5.03
2023-10-23T12:38:14.059Z,4.57
2023-10-23T12:40:44.904Z,5.05
2023-10-23T12:43:17.140Z,4.40
2023-10-23T12:45:45.179Z,5.15
2023-10-23T12:48:13.169Z,5.72
2023-10-23T12:50:41.250Z,19.42
2023-10-23T12:53:10.680Z,6.45
2023-10-23T12:55:38.837Z,9.27
2023-10-23T12:58:08.634Z,11.60
2023-10-23T13:00:37.712Z,15.52
2023-10-23T13:03:06.342Z,6.80
2023-10-23T13:05:34.819Z,7.82
2023-10-23T13:08:03.057Z,33.70
2023-10-23T13:10:31.167Z,5.50
2023-10-23T13:12:59.219Z,10.07
2023-10-23T13:15:29.130Z,4.88
2023-10-23T13:17:57.681Z,4.22
2023-10-23T13:21:27.838Z,6.85
2023-10-23T13:23:13.875Z,5.70
2023-10-23T13:25:42.304Z,10.30
2023-10-23T13:28:10.978Z,6.18
2023-10-23T13:30:40.958Z,5.82
2023-10-23T13:33:09.093Z,8.75
2023-10-23T13:35:38.104Z,4.57
2023-10-23T13:38:06.352Z,4.00
2023-10-23T13:40:38.245Z,5.97
2023-10-23T13:43:06.271Z,4.65
2023-10-23T13:45:34.373Z,4.28
2023-10-23T13:48:04.477Z,3.97
2023-10-23T13:50:33.796Z,4.22
2023-10-23T13:53:01.778Z,4.38
2023-10-23T13:55:29.967Z,3.13
2023-10-23T13:57:58.156Z,3.25
2023-10-23T14:00:26.649Z,3.17
2023-10-23T14:02:54.908Z,2.67
2023-10-23T14:05:24.635Z,4.20
2023-10-23T14:07:55.910Z,3.78
2023-10-23T14:10:24.328Z,3.40
2023-10-23T14:23:34.970Z,3.72
2023-10-23T14:26:03.176Z,4.05
2023-10-23T14:28:32.207Z,4.90
2023-10-23T14:31:00.548Z,6.30
2023-10-23T14:33:33.215Z,5.60
2023-10-23T14:36:01.405Z,6.45
2023-10-23T14:38:29.441Z,4.90
2023-10-23T14:41:00.621Z,4.18
2023-10-23T14:43:28.741Z,5.20
2023-10-23T14:45:56.854Z,4.88
2023-10-23T14:48:25.348Z,3.97
2023-10-23T14:50:54.172Z,4.10
2023-10-23T14:53:22.335Z,4.10
2023-10-23T14:55:50.337Z,4.00
2023-10-23T14:58:19.831Z,4.55
2023-10-23T15:00:47.882Z,4.68
2023-10-23T15:03:15.923Z,3.92
2023-10-23T15:05:43.974Z,4.35
2023-10-23T15:08:12.040Z,8.48
2023-10-23T15:10:40.047Z,6.18
2023-10-23T15:13:08.201Z,4.70
2023-10-23T15:15:38.000Z,6.18
2023-10-23T15:18:06.096Z,5.25
2023-10-23T15:20:34.312Z,4.03
2023-10-23T15:23:03.710Z,4.60
2023-10-23T15:25:32.171Z,4.90
2023-10-23T15:28:00.690Z,18.90
2023-10-23T15:38:37.775Z,5.85
2023-10-23T15:40:37.261Z,5.75
2023-10-23T15:58:53.357Z,9.43
2023-10-23T16:02:24.626Z,11.35
2023-10-23T16:06:11.229Z,8.60
2023-10-23T16:12:19.251Z,7.82
2023-10-23T16:15:35.381Z,11.60
2023-10-23T16:22:07.355Z,12.38
2023-10-23T16:25:45.151Z,12.45
2023-10-23T16:29:10.676Z,12.18
2023-10-23T16:31:59.313Z,8.93
2023-10-23T16:34:31.070Z,14.52
2023-10-23T16:40:45.002Z,10.05
2023-10-23T16:50:23.731Z,8.52
2023-10-23T16:57:53.044Z,8.32
2023-10-23T17:00:22.748Z,8.10
2023-10-23T17:02:50.925Z,7.22
2023-10-23T17:05:31.517Z,7.43
2023-10-23T17:08:17.233Z,7.40
2023-10-23T17:11:06.826Z,7.00
2023-10-23T17:14:53.990Z,7.63
2023-10-23T17:20:49.368Z,7.30
2023-10-23T17:23:19.486Z,8.77
2023-10-23T17:25:48.297Z,9.10
2023-10-23T17:28:16.437Z,9.57
2023-10-23T17:30:44.626Z,10.93
2023-10-23T17:33:12.681Z,9.80
2023-10-23T17:35:40.718Z,8.82
2023-10-23T17:38:10.136Z,9.25
2023-10-23T17:40:38.268Z,8.63
2023-10-23T17:43:06.337Z,16.92
2023-10-23T17:45:35.464Z,13.05
2023-10-23T17:48:04.116Z,12.10
2023-10-23T17:50:34.104Z,10.20
2023-10-23T17:53:02.347Z,21.33
2023-10-23T17:55:40.017Z,11.95
2023-10-23T17:58:08.454Z,19.63
2023-10-23T18:00:36.916Z,11.80
2023-10-23T18:03:05.499Z,13.65
2023-10-23T18:05:33.706Z,15.18
2023-10-23T18:08:01.846Z,12.77
2023-10-23T18:10:31.383Z,12.48
2023-10-23T18:13:00.272Z,17.90
2023-10-23T18:15:28.365Z,24.35
2023-10-23T18:17:56.451Z,17.73
2023-10-23T18:20:24.865Z,18.05
2023-10-23T18:22:54.849Z,18.10
2023-10-23T18:25:22.879Z,16.77
2023-10-23T18:27:52.825Z,15.23
2023-10-23T18:30:21.645Z,11.45
2023-10-23T18:32:49.803Z,10.00
2023-10-23T18:35:18.211Z,9.43
2023-10-23T18:37:47.200Z,10.35
2023-10-23T18:40:16.216Z,10.60
2023-10-23T18:42:44.703Z,9.93
2023-10-23T18:45:17.308Z,8.80
2023-10-23T18:48:23.822Z,8.68
2023-10-23T18:51:34.392Z,9.77
2023-10-23T18:54:02.534Z,9.25
2023-10-23T18:57:25.797Z,11.18
2023-10-23T18:59:54.114Z,11.18
2023-10-23T19:02:23.705Z,11.88
2023-10-23T19:04:51.971Z,10.95
2023-10-23T19:07:21.346Z,11.82
2023-10-23T19:09:49.560Z,13.07
2023-10-23T19:12:17.649Z,9.57
2023-10-23T19:14:45.753Z,11.50
2023-10-23T19:17:21.559Z,12.38
2023-10-23T19:19:59.763Z,10.38
2023-10-23T19:22:27.885Z,11.85
2023-10-23T19:24:56.508Z,11.82
2023-10-23T19:27:26.633Z,14.85
2023-10-23T19:29:56.752Z,15.38
2023-10-23T19:32:26.157Z,14.10
2023-10-23T19:34:55.115Z,15.98
2023-10-23T19:37:25.404Z,16.40
2023-10-23T19:39:54.024Z,14.18
2023-10-23T19:42:27.922Z,15.18
2023-10-23T19:47:24.901Z,11.57
2023-10-23T19:49:53.603Z,11.13
2023-10-23T19:52:22.936Z,13.43
2023-10-23T19:54:54.335Z,12.70
2023-10-23T19:57:34.777Z,10.70
2023-10-23T20:00:07.720Z,9.65
2023-10-23T20:02:35.919Z,8.83
2023-10-23T20:05:04.469Z,7.80
2023-10-23T20:07:32.644Z,7.57
2023-10-23T20:10:05.048Z,6.53
2023-10-23T20:12:33.379Z,5.30
2023-10-23T20:15:01.626Z,4.90
2023-10-23T20:17:29.727Z,4.20
2023-10-23T20:19:57.861Z,4.55
2023-10-23T20:22:25.986Z,4.85
2023-10-23T20:24:54.217Z,5.25
2023-10-23T20:27:23.701Z,4.80
2023-10-23T20:29:51.809Z,3.80
2023-10-23T20:32:20.131Z,3.67
2023-10-23T20:34:49.348Z,3.05
2023-10-23T20:37:17.510Z,2.33
2023-10-23T20:39:45.661Z,2.30
2023-10-23T20:42:13.741Z,1.75
2023-10-23T20:44:43.190Z,2.30
2023-10-23T20:47:15.721Z,3.30
2023-10-23T20:49:44.109Z,7.05
2023-10-23T20:52:13.256Z,6.85
2023-10-23T20:54:41.366Z,8.57
2023-10-23T20:57:09.483Z,10.63
2023-10-23T20:59:37.590Z,12.48
2023-10-23T21:02:07.558Z,11.73
2023-10-23T21:04:36.303Z,13.60
2023-10-23T21:07:04.536Z,14.32
2023-10-23T21:09:32.735Z,15.18
2023-10-23T21:12:05.592Z,16.40
2023-10-23T21:14:33.976Z,15.70
2023-10-23T21:17:02.549Z,14.93
2023-10-23T21:19:32.042Z,15.30
2023-10-23T21:22:00.492Z,13.85
2023-10-23T21:24:29.102Z,13.95
2023-10-23T21:26:58.714Z,14.20
2023-10-23T21:29:27.863Z,14.77
2023-10-23T21:31:56.669Z,13.70
2023-10-23T21:34:24.953Z,16.75
2023-10-23T21:36:55.283Z,17.50
2023-10-23T21:39:25.184Z,18.77
2023-10-23T21:41:53.261Z,18.42
2023-10-23T21:44:24.245Z,17.35
2023-10-23T21:46:54.675Z,16.88
2023-10-23T21:49:22.888Z,18.08
2023-10-23T21:51:54.621Z,14.93
2023-10-23T21:54:24.821Z,17.00
2023-10-23T21:57:20.416Z,15.50
2023-10-23T21:59:43.065Z,15.05
2023-10-23T22:02:12.962Z,15.23
2023-10-23T22:04:41.734Z,15.60
2023-10-23T22:07:13.359Z,15.60
2023-10-23T22:09:43.624Z,16.05
2023-10-23T22:12:12.922Z,15.60
2023-10-23T22:14:41.583Z,15.82
2023-10-23T22:17:10.354Z,16.95
2023-10-23T22:19:38.496Z,17.20
2023-10-23T22:22:06.600Z,17.85
2023-10-23T22:24:34.660Z,17.13
2023-10-23T22:27:04.225Z,19.92
2023-10-23T22:29:32.303Z,17.70
2023-10-23T22:32:00.394Z,17.60
2023-10-23T22:34:28.869Z,19.33
2023-10-23T22:37:46.385Z,17.98
2023-10-23T22:39:45.205Z,17.42
2023-10-23T22:42:14.669Z,17.42
2023-10-23T22:44:43.053Z,18.65
2023-10-23T22:47:11.247Z,18.20
2023-10-23T22:49:39.913Z,16.80
2023-10-23T22:52:08.847Z,16.00
2023-10-23T22:54:37.498Z,17.02
2023-10-23T22:57:08.023Z,16.88
2023-10-23T22:59:38.077Z,16.98
2023-10-23T23:02:06.997Z,14.40
2023-10-23T23:04:37.129Z,14.75
2023-10-23T23:07:07.744Z,14.07
2023-10-23T23:09:36.262Z,15.48
2023-10-23T23:12:04.839Z,15.57
2023-10-23T23:14:33.237Z,14.27
2023-10-23T23:17:04.807Z,15.40
2023-10-23T23:19:37.813Z,15.40
2023-10-23T23:22:09.558Z,15.87
2023-10-23T23:24:39.235Z,16.17
2023-10-23T23:27:07.606Z,16.10
2023-10-23T23:29:36.213Z,16.13
2023-10-23T23:32:05.911Z,16.20
2023-10-23T23:34:34.202Z,16.52
2023-10-23T23:37:02.829Z,17.08
2023-10-23T23:39:30.923Z,16.02
2023-10-23T23:41:59.287Z,17.98
2023-10-23T23:44:27.286Z,19.00
2023-10-23T23:46:57.383Z,18.23
2023-10-23T23:49:28.444Z,16.05
2023-10-23T23:51:56.617Z,17.50
2023-10-23T23:54:24.649Z,15.02
2023-10-23T23:56:52.745Z,14.73
2023-10-23T23:59:20.842Z,13.98
